Time,TemperatureF,DewpointF,PressureIn,WindDirection,WindDirectionDegrees,WindSpeedMPH,WindSpeedGustMPH,Humidity,HourlyPrecipIn,Conditions,Clouds,dailyrainin,SoftwareType,DateUTC
2013-05-16 00:01:00,66.8,61.8,29.87,NNE,20,0.0,0.0,84,0.00,,,0.00,LWC V2.00 B2112,2013-05-16 04:01:00,
2013-05-16 00:06:00,66.8,61.8,29.87,NNE,20,0.0,0.0,84,0.00,,,0.00,LWC V2.00 B2112,2013-05-16 04:06:00,
2013-05-16 00:11:00,66.8,61.8,29.87,NNE,20,0.0,0.0,84,0.00,,,0.00,LWC V2.00 B2112,2013-05-16 04:11:00,
2013-05-16 00:16:00,66.6,61.6,29.87,NNE,20,0.0,0.0,84,0.00,,,0.00,LWC V2.00 B2112,2013-05-16 04:16:00,
2013-05-16 00:21:00,66.6,61.6,29.87,NNE,20,0.0,0.0,84,0.00,,,0.00,LWC V2.00 B2112,2013-05-16 04:21:00,
2013-05-16 00:26:00,66.6,61.9,29.87,NNE,20,0.0,0.0,85,0.00,,,0.00,LWC V2.00 B2112,2013-05-16 04:26:00,
2013-05-16 00:31:00,66.6,61.9,29.87,NNE,20,0.0,0.0,85,0.00,,,0.00,LWC V2.00 B2112,2013-05-16 04:31:00,
2013-05-16 00:36:00,66.6,61.6,29.87,NNE,20,0.0,0.0,84,0.00,,,0.00,LWC V2.00 B2112,2013-05-16 04:36:00,
2013-05-16 00:41:00,66.4,61.4,29.87,NNE,20,0.0,0.0,84,0.00,,,0.00,LWC V2.00 B2112,2013-05-16 04:41:00,
2013-05-16 00:46:00,66.4,61.4,29.87,NNE,20,0.0,0.0,84,0.00,,,0.00,LWC V2.00 B2112,2013-05-16 04:46:00,
2013-05-16 00:51:00,66.3,61.3,29.87,NNE,20,0.0,0.0,84,0.00,,,0.00,LWC V2.00 B2112,2013-05-16 04:51:00,
2013-05-16 00:56:00,66.3,61.6,29.87,NNE,20,0.0,0.0,85,0.00,,,0.00,LWC V2.00 B2112,2013-05-16 04:56:00,
2013-05-16 01:01:00,66.1,61.5,29.87,NNE,20,0.0,0.0,85,0.00,,,0.00,LWC V2.00 B2112,2013-05-16 05:01:00,
2013-05-16 01:06:00,66.0,61.4,29.87,NNE,20,0.0,0.0,85,0.00,,,0.00,LWC V2.00 B2112,2013-05-16 05:06:00,
2013-05-16 01:11:00,66.0,61.4,29.87,NNE,20,0.0,0.0,85,0.00,,,0.00,LWC V2.00 B2112,2013-05-16 05:11:00,
2013-05-16 01:16:00,65.8,61.2,29.87,NNE,20,0.0,0.0,85,0.00,,,0.00,LWC V2.00 B2112,2013-05-16 05:16:00,
2013-05-16 01:21:00,65.8,61.5,29.87,NNE,20,0.0,0.0,86,0.00,,,0.00,LWC V2.00 B2112,2013-05-16 05:21:00,
2013-05-16 01:26:00,65.8,61.5,29.87,NNE,20,0.0,0.0,86,0.00,,,0.00,LWC V2.00 B2112,2013-05-16 05:26:00,
2013-05-16 01:31:00,65.6,61.3,29.87,NNE,20,0.0,0.0,86,0.00,,,0.00,LWC V2.00 B2112,2013-05-16 05:31:00,
2013-05-16 01:36:00,65.6,61.3,29.87,NNE,20,0.0,0.0,86,0.00,,,0.00,LWC V2.00 B2112,2013-05-16 05:36:00,
2013-05-16 01:41:00,65.5,61.2,29.87,NNE,20,0.0,0.0,86,0.00,,,0.00,LWC V2.00 B2112,2013-05-16 05:41:00,
2013-05-16 01:46:00,65.5,61.2,29.87,NNE,20,0.0,0.0,86,0.00,,,0.00,LWC V2.00 B2112,2013-05-16 05:46:00,
2013-05-16 01:51:00,65.5,61.2,29.87,NNE,20,0.0,0.0,86,0.00,,,0.00,LWC V2.00 B2112,2013-05-16 05:51:00,
2013-05-16 01:56:00,65.3,61.3,29.86,NNE,20,0.0,0.0,87,0.00,,,0.00,LWC V2.00 B2112,2013-05-16 05:56:00,
2013-05-16 02:01:00,65.3,61.3,29.86,NNE,20,0.0,0.0,87,0.00,,,0.00,LWC V2.00 B2112,2013-05-16 06:01:00,
2013-05-16 02:06:00,65.3,61.3,29.86,NNE,20,0.0,0.0,87,0.00,,,0.00,LWC V2.00 B2112,2013-05-16 06:06:00,
2013-05-16 02:11:00,65.2,61.2,29.86,NNE,20,0.0,0.0,87,0.00,,,0.00,LWC V2.00 B2112,2013-05-16 06:11:00,
2013-05-16 02:16:00,65.2,61.2,29.86,NNE,20,0.0,0.0,87,0.00,,,0.00,LWC V2.00 B2112,2013-05-16 06:16:00,
2013-05-16 02:21:00,65.2,61.2,29.86,NNE,20,0.0,0.0,87,0.00,,,0.00,LWC V2.00 B2112,2013-05-16 06:21:00,
2013-05-16 02:26:00,65.2,61.2,29.85,NNE,20,0.0,0.0,87,0.00,,,0.00,LWC V2.00 B2112,2013-05-16 06:26:00,
2013-05-16 02:31:00,65.0,61.0,29.85,NNE,20,0.0,0.0,87,0.00,,,0.00,LWC V2.00 B2112,2013-05-16 06:31:00,
2013-05-16 02:36:00,65.0,61.0,29.85,NNE,20,0.0,0.0,87,0.00,,,0.00,LWC V2.00 B2112,2013-05-16 06:36:00,
2013-05-16 02:41:00,64.8,60.8,29.85,NNE,20,0.0,0.0,87,0.00,,,0.00,LWC V2.00 B2112,2013-05-16 06:41:00,
2013-05-16 02:46:00,64.8,61.2,29.85,NNE,20,0.0,0.0,88,0.00,,,0.00,LWC V2.00 B2112,2013-05-16 06:46:00,
2013-05-16 02:51:00,64.7,61.1,29.85,NNE,20,0.0,0.0,88,0.00,,,0.00,LWC V2.00 B2112,2013-05-16 06:51:00,
2013-05-16 02:56:00,64.7,61.1,29.85,NNE,20,0.0,0.0,88,0.00,,,0.00,LWC V2.00 B2112,2013-05-16 06:56:00,
2013-05-16 03:01:00,64.7,61.1,29.85,NNE,20,0.0,0.0,88,0.00,,,0.00,LWC V2.00 B2112,2013-05-16 07:01:00,
2013-05-16 03:06:00,64.7,61.1,29.85,NNE,20,0.0,0.0,88,0.00,,,0.00,LWC V2.00 B2112,2013-05-16 07:06:00,
2013-05-16 03:11:00,64.5,60.9,29.85,NNE,20,0.0,0.0,88,0.00,,,0.00,LWC V2.00 B2112,2013-05-16 07:11:00,
2013-05-16 03:16:00,64.5,60.9,29.85,NNE,20,0.0,0.0,88,0.00,,,0.00,LWC V2.00 B2112,2013-05-16 07:16:00,
2013-05-16 03:21:00,64.3,60.7,29.85,NNE,20,0.0,0.0,88,0.00,,,0.00,LWC V2.00 B2112,2013-05-16 07:21:00,
2013-05-16 03:26:00,64.3,60.7,29.85,NNE,20,0.0,0.0,88,0.00,,,0.00,LWC V2.00 B2112,2013-05-16 07:26:00,
2013-05-16 03:31:00,64.2,60.6,29.85,NNE,20,0.0,0.0,88,0.00,,,0.00,LWC V2.00 B2112,2013-05-16 07:31:00,
2013-05-16 03:36:00,64.2,60.9,29.85,NNE,20,0.0,0.0,89,0.00,,,0.00,LWC V2.00 B2112,2013-05-16 07:36:00,
2013-05-16 03:41:00,64.0,60.7,29.85,NNE,20,0.0,0.0,89,0.00,,,0.00,LWC V2.00 B2112,2013-05-16 07:41:00,
2013-05-16 03:46:00,63.9,60.6,29.85,NNE,20,0.0,0.0,89,0.00,,,0.00,LWC V2.00 B2112,2013-05-16 07:46:00,
2013-05-16 03:51:00,63.9,60.6,29.85,NNE,20,0.0,0.0,89,0.00,,,0.00,LWC V2.00 B2112,2013-05-16 07:51:00,
2013-05-16 03:56:00,63.7,60.4,29.85,NNE,20,0.0,0.0,89,0.00,,,0.00,LWC V2.00 B2112,2013-05-16 07:56:00,
2013-05-16 04:01:00,63.5,60.2,29.85,NNE,20,0.0,0.0,89,0.00,,,0.00,LWC V2.00 B2112,2013-05-16 08:01:00,
2013-05-16 04:06:00,63.4,60.4,29.85,NNE,20,0.0,0.0,90,0.00,,,0.00,LWC V2.00 B2112,2013-05-16 08:06:00,
2013-05-16 04:11:00,63.2,60.2,29.85,NNE,20,0.0,0.0,90,0.00,,,0.00,LWC V2.00 B2112,2013-05-16 08:11:00,
2013-05-16 04:16:00,63.2,60.2,29.85,NNE,20,0.0,0.0,90,0.00,,,0.00,LWC V2.00 B2112,2013-05-16 08:16:00,
2013-05-16 04:21:00,63.1,60.1,29.85,NNE,20,0.0,0.0,90,0.00,,,0.00,LWC V2.00 B2112,2013-05-16 08:21:00,
2013-05-16 04:26:00,62.9,59.9,29.85,NNE,20,0.0,0.0,90,0.00,,,0.00,LWC V2.00 B2112,2013-05-16 08:26:00,
2013-05-16 04:31:00,62.7,59.7,29.85,NNE,20,0.0,0.0,90,0.00,,,0.00,LWC V2.00 B2112,2013-05-16 08:31:00,
2013-05-16 04:36:00,62.7,59.7,29.85,NNE,20,0.0,0.0,90,0.00,,,0.00,LWC V2.00 B2112,2013-05-16 08:36:00,
2013-05-16 04:41:00,62.6,59.9,29.85,NNE,20,0.0,0.0,91,0.00,,,0.00,LWC V2.00 B2112,2013-05-16 08:41:00,
2013-05-16 04:46:00,62.4,59.7,29.85,NNE,20,0.0,0.0,91,0.00,,,0.00,LWC V2.00 B2112,2013-05-16 08:46:00,
2013-05-16 04:51:00,62.4,59.7,29.85,NNE,20,0.0,0.0,91,0.00,,,0.00,LWC V2.00 B2112,2013-05-16 08:51:00,
2013-05-16 04:56:00,62.3,59.6,29.85,NNE,20,0.0,0.0,91,0.00,,,0.00,LWC V2.00 B2112,2013-05-16 08:56:00,
2013-05-16 05:01:00,62.1,59.4,29.85,NNE,20,0.0,0.0,91,0.00,,,0.00,LWC V2.00 B2112,2013-05-16 09:01:00,
2013-05-16 05:06:00,62.0,59.3,29.85,NNE,20,0.0,0.0,91,0.00,,,0.00,LWC V2.00 B2112,2013-05-16 09:06:00,
2013-05-16 05:11:00,62.0,59.6,29.85,NNE,20,0.0,0.0,92,0.00,,,0.00,LWC V2.00 B2112,2013-05-16 09:11:00,
2013-05-16 05:16:00,61.8,59.4,29.85,NNE,20,0.0,0.0,92,0.00,,,0.00,LWC V2.00 B2112,2013-05-16 09:16:00,
2013-05-16 05:21:00,61.6,59.2,29.85,NNE,20,0.0,0.0,92,0.00,,,0.00,LWC V2.00 B2112,2013-05-16 09:21:00,
2013-05-16 05:26:00,61.6,59.2,29.85,NNE,20,0.0,0.0,92,0.00,,,0.00,LWC V2.00 B2112,2013-05-16 09:26:00,
2013-05-16 05:31:00,61.5,59.2,29.85,NNE,20,0.0,0.0,92,0.00,,,0.00,LWC V2.00 B2112,2013-05-16 09:31:00,
2013-05-16 05:36:00,61.5,59.2,29.85,NNE,20,0.0,0.0,92,0.00,,,0.00,LWC V2.00 B2112,2013-05-16 09:36:00,
2013-05-16 05:41:00,61.3,59.0,29.86,NNE,20,0.0,0.0,92,0.00,,,0.00,LWC V2.00 B2112,2013-05-16 09:41:00,
2013-05-16 05:46:00,61.3,59.0,29.86,NNE,20,0.0,0.0,92,0.00,,,0.00,LWC V2.00 B2112,2013-05-16 09:46:00,
2013-05-16 05:51:00,61.2,58.9,29.86,NNE,20,0.0,0.0,92,0.00,,,0.00,LWC V2.00 B2112,2013-05-16 09:51:00,
2013-05-16 05:56:00,61.0,58.7,29.86,NNE,20,0.0,0.0,92,0.00,,,0.00,LWC V2.00 B2112,2013-05-16 09:56:00,
2013-05-16 06:01:00,61.0,58.7,29.86,NNE,20,0.0,0.0,92,0.00,,,0.00,LWC V2.00 B2112,2013-05-16 10:01:00,
2013-05-16 06:06:00,60.9,58.6,29.86,NNE,20,0.0,0.0,92,0.00,,,0.00,LWC V2.00 B2112,2013-05-16 10:06:00,
2013-05-16 06:11:00,60.9,58.6,29.86,NNE,20,0.0,0.0,92,0.00,,,0.00,LWC V2.00 B2112,2013-05-16 10:11:00,
2013-05-16 06:16:00,60.7,58.4,29.86,NNE,20,0.0,0.0,92,0.00,,,0.00,LWC V2.00 B2112,2013-05-16 10:16:00,
2013-05-16 06:21:00,60.7,58.4,29.86,NNE,20,0.0,0.0,92,0.00,,,0.00,LWC V2.00 B2112,2013-05-16 10:21:00,
2013-05-16 06:26:00,60.5,58.2,29.87,NNE,20,0.0,0.0,92,0.00,,,0.00,LWC V2.00 B2112,2013-05-16 10:26:00,
2013-05-16 06:31:00,60.5,58.2,29.87,NNE,20,0.0,0.0,92,0.00,,,0.00,LWC V2.00 B2112,2013-05-16 10:31:00,
2013-05-16 06:36:00,60.5,58.2,29.87,NNE,20,0.0,0.0,92,0.00,,,0.00,LWC V2.00 B2112,2013-05-16 10:36:00,
2013-05-16 06:41:00,60.4,58.4,29.88,NNE,20,0.0,0.0,93,0.00,,,0.00,LWC V2.00 B2112,2013-05-16 10:41:00,
2013-05-16 06:46:00,60.4,58.4,29.88,NNE,20,0.0,0.0,93,0.00,,,0.00,LWC V2.00 B2112,2013-05-16 10:46:00,
2013-05-16 06:51:00,60.4,58.4,29.88,NNE,20,0.0,0.0,93,0.00,,,0.00,LWC V2.00 B2112,2013-05-16 10:51:00,
2013-05-16 06:56:00,60.4,58.4,29.88,NNE,20,0.0,0.0,93,0.00,,,0.00,LWC V2.00 B2112,2013-05-16 10:56:00,
2013-05-16 07:01:00,60.4,58.7,29.88,NNE,20,0.0,0.0,94,0.00,,,0.00,LWC V2.00 B2112,2013-05-16 11:01:00,
2013-05-16 07:06:00,60.4,58.7,29.88,NNE,20,0.0,0.0,94,0.00,,,0.00,LWC V2.00 B2112,2013-05-16 11:06:00,
2013-05-16 07:11:00,60.4,58.7,29.88,NNE,20,0.0,0.0,94,0.00,,,0.00,LWC V2.00 B2112,2013-05-16 11:11:00,
2013-05-16 07:16:00,60.4,58.7,29.88,NNE,20,0.0,0.0,94,0.00,,,0.00,LWC V2.00 B2112,2013-05-16 11:16:00,
2013-05-16 07:21:00,60.5,58.8,29.88,NNE,20,0.0,0.0,94,0.00,,,0.00,LWC V2.00 B2112,2013-05-16 11:21:00,
2013-05-16 07:26:00,60.5,58.8,29.88,NNE,20,0.0,0.0,94,0.00,,,0.00,LWC V2.00 B2112,2013-05-16 11:26:00,
2013-05-16 07:31:00,60.5,58.8,29.88,NNE,20,0.0,0.0,94,0.00,,,0.00,LWC V2.00 B2112,2013-05-16 11:31:00,
2013-05-16 07:36:00,60.7,59.3,29.88,NNE,20,0.0,0.0,95,0.00,,,0.00,LWC V2.00 B2112,2013-05-16 11:36:00,
2013-05-16 07:41:00,60.9,59.5,29.89,NNE,20,0.0,0.0,95,0.00,,,0.00,LWC V2.00 B2112,2013-05-16 11:41:00,
2013-05-16 07:46:00,61.0,59.6,29.89,NNE,20,0.0,0.0,95,0.00,,,0.00,LWC V2.00 B2112,2013-05-16 11:46:00,
2013-05-16 07:51:00,61.3,59.9,29.89,NNE,20,0.0,0.0,95,0.00,,,0.00,LWC V2.00 B2112,2013-05-16 11:51:00,
2013-05-16 07:56:00,61.5,60.1,29.89,NNE,20,0.0,0.0,95,0.00,,,0.00,LWC V2.00 B2112,2013-05-16 11:56:00,
2013-05-16 08:01:00,61.6,60.4,29.89,NNE,20,0.0,0.0,96,0.00,,,0.00,LWC V2.00 B2112,2013-05-16 12:01:00,
2013-05-16 08:06:00,62.1,60.9,29.89,NNE,20,0.0,0.0,96,0.00,,,0.00,LWC V2.00 B2112,2013-05-16 12:06:00,
2013-05-16 08:11:00,62.4,61.2,29.90,NNE,20,0.0,0.0,96,0.00,,,0.00,LWC V2.00 B2112,2013-05-16 12:11:00,
2013-05-16 08:16:00,62.9,61.7,29.90,NNE,20,0.0,0.0,96,0.00,,,0.00,LWC V2.00 B2112,2013-05-16 12:16:00,
2013-05-16 08:21:00,63.2,62.0,29.90,NNE,20,0.0,0.0,96,0.00,,,0.00,LWC V2.00 B2112,2013-05-16 12:21:00,
2013-05-16 08:26:00,63.5,62.3,29.90,NNE,20,0.0,0.0,96,0.00,,,0.00,LWC V2.00 B2112,2013-05-16 12:26:00,
2013-05-16 08:31:00,64.2,63.0,29.90,NNE,20,0.0,0.0,96,0.00,,,0.00,LWC V2.00 B2112,2013-05-16 12:31:00,
2013-05-16 08:36:00,64.5,63.3,29.90,NNE,20,0.0,0.0,96,0.00,,,0.00,LWC V2.00 B2112,2013-05-16 12:36:00,
2013-05-16 08:41:00,65.0,63.8,29.90,NNE,20,1.0,1.0,96,0.00,,,0.00,LWC V2.00 B2112,2013-05-16 12:41:00,
2013-05-16 08:46:00,65.5,64.3,29.90,NNE,20,0.0,0.0,96,0.00,,,0.00,LWC V2.00 B2112,2013-05-16 12:46:00,
2013-05-16 08:51:00,66.0,64.5,29.90,NNE,20,0.0,0.0,95,0.00,,,0.00,LWC V2.00 B2112,2013-05-16 12:51:00,
2013-05-16 08:56:00,66.4,64.6,29.91,NNE,24,0.0,2.0,94,0.00,,,0.00,LWC V2.00 B2112,2013-05-16 12:56:00,
2013-05-16 09:01:00,67.1,64.7,29.91,NNE,33,0.0,2.0,92,0.00,,,0.00,LWC V2.00 B2112,2013-05-16 13:01:00,
2013-05-16 09:06:00,67.6,64.9,29.91,NNE,33,0.0,0.0,91,0.00,,,0.00,LWC V2.00 B2112,2013-05-16 13:06:00,
2013-05-16 09:11:00,68.1,65.0,29.91,NNE,32,0.0,0.0,90,0.00,,,0.00,LWC V2.00 B2112,2013-05-16 13:11:00,
2013-05-16 09:16:00,68.6,65.2,29.91,NNE,33,0.0,0.0,89,0.00,,,0.00,LWC V2.00 B2112,2013-05-16 13:16:00,
2013-05-16 09:21:00,69.6,64.9,29.91,NNE,32,0.0,0.0,85,0.00,,,0.00,LWC V2.00 B2112,2013-05-16 13:21:00,
2013-05-16 09:26:00,70.6,63.4,29.91,ENE,70,0.0,0.0,78,0.00,,,0.00,LWC V2.00 B2112,2013-05-16 13:26:00,
2013-05-16 09:31:00,71.6,61.3,29.91,East,98,0.0,0.0,70,0.00,,,0.00,LWC V2.00 B2112,2013-05-16 13:31:00,
2013-05-16 09:36:00,72.8,63.6,29.91,East,97,0.0,0.0,73,0.00,,,0.00,LWC V2.00 B2112,2013-05-16 13:36:00,
2013-05-16 09:41:00,73.7,63.3,29.91,East,86,0.0,1.0,70,0.00,,,0.00,LWC V2.00 B2112,2013-05-16 13:41:00,
2013-05-16 09:46:00,74.2,62.1,29.91,East,86,0.0,0.0,66,0.00,,,0.00,LWC V2.00 B2112,2013-05-16 13:46:00,
2013-05-16 09:51:00,75.1,61.2,29.91,ENE,72,0.0,0.0,62,0.00,,,0.00,LWC V2.00 B2112,2013-05-16 13:51:00,
2013-05-16 09:53:00,75.1,62.1,29.91,ENE,59,1.0,2.0,64,0.00,,,0.00,LWC V2.00 B2112,2013-05-16 13:53:00,
2013-05-16 09:58:00,75.6,62.5,29.91,ENE,58,0.0,0.0,64,0.00,,,0.00,LWC V2.00 B2112,2013-05-16 13:58:00,
2013-05-16 10:03:00,76.3,60.9,29.91,ENE,63,0.0,1.0,59,0.00,,,0.00,LWC V2.00 B2112,2013-05-16 14:03:00,
2013-05-16 10:08:00,76.8,62.8,29.91,East,79,0.0,0.0,62,0.00,,,0.00,LWC V2.00 B2112,2013-05-16 14:08:00,
2013-05-16 10:13:00,77.2,61.7,29.91,East,79,0.0,1.0,59,0.00,,,0.00,LWC V2.00 B2112,2013-05-16 14:13:00,
2013-05-16 10:18:00,77.4,59.9,29.91,East,79,0.0,1.0,55,0.00,,,0.00,LWC V2.00 B2112,2013-05-16 14:18:00,
2013-05-16 10:23:00,77.7,60.7,29.91,East,79,0.0,1.0,56,0.00,,,0.00,LWC V2.00 B2112,2013-05-16 14:23:00,
2013-05-16 10:28:00,78.1,62.6,29.91,NE,44,1.0,1.0,59,0.00,,,0.00,LWC V2.00 B2112,2013-05-16 14:28:00,
2013-05-16 10:33:00,78.3,60.3,29.91,NE,55,0.0,0.0,54,0.00,,,0.00,LWC V2.00 B2112,2013-05-16 14:33:00,
2013-05-16 10:38:00,78.6,61.1,29.91,NE,49,0.0,0.0,55,0.00,,,0.00,LWC V2.00 B2112,2013-05-16 14:38:00,
2013-05-16 10:43:00,79.2,62.1,29.91,NE,49,0.0,0.0,56,0.00,,,0.00,LWC V2.00 B2112,2013-05-16 14:43:00,
2013-05-16 10:48:00,79.6,58.7,29.91,ENE,59,0.0,5.0,49,0.00,,,0.00,LWC V2.00 B2112,2013-05-16 14:48:00,
2013-05-16 10:53:00,79.9,59.0,29.91,ENE,59,0.0,1.0,49,0.00,,,0.00,LWC V2.00 B2112,2013-05-16 14:53:00,
2013-05-16 10:58:00,80.1,60.3,29.92,NE,56,0.0,3.0,51,0.00,,,0.00,LWC V2.00 B2112,2013-05-16 14:58:00,
2013-05-16 11:03:00,80.3,61.0,29.92,NE,56,0.0,1.0,52,0.00,,,0.00,LWC V2.00 B2112,2013-05-16 15:03:00,
2013-05-16 11:08:00,80.3,58.8,29.92,ENE,61,0.0,0.0,48,0.00,,,0.00,LWC V2.00 B2112,2013-05-16 15:08:00,
2013-05-16 11:13:00,80.3,57.0,29.92,ENE,69,0.0,1.0,45,0.00,,,0.00,LWC V2.00 B2112,2013-05-16 15:13:00,
2013-05-16 11:18:00,80.7,58.6,29.92,ENE,60,0.0,0.0,47,0.00,,,0.00,LWC V2.00 B2112,2013-05-16 15:18:00,
2013-05-16 11:23:00,80.9,58.8,29.92,ENE,64,0.0,0.0,47,0.00,,,0.00,LWC V2.00 B2112,2013-05-16 15:23:00,
2013-05-16 11:28:00,81.2,60.2,29.92,NE,53,1.0,2.0,49,0.00,,,0.00,LWC V2.00 B2112,2013-05-16 15:28:00,
2013-05-16 11:33:00,81.4,59.2,29.92,SE,126,0.0,0.0,47,0.00,,,0.00,LWC V2.00 B2112,2013-05-16 15:33:00,
2013-05-16 11:38:00,81.4,56.1,29.92,East,82,1.0,1.0,42,0.00,,,0.00,LWC V2.00 B2112,2013-05-16 15:38:00,
2013-05-16 11:43:00,81.2,56.5,29.93,NE,55,0.0,1.0,43,0.00,,,0.00,LWC V2.00 B2112,2013-05-16 15:43:00,
2013-05-16 11:48:00,81.2,59.0,29.93,NE,55,0.0,1.0,47,0.00,,,0.00,LWC V2.00 B2112,2013-05-16 15:48:00,
2013-05-16 11:53:00,81.1,60.1,29.93,NE,55,0.0,0.0,49,0.00,,,0.00,LWC V2.00 B2112,2013-05-16 15:53:00,
2013-05-16 11:58:00,80.9,61.0,29.92,NE,55,0.0,0.0,51,0.00,,,0.00,LWC V2.00 B2112,2013-05-16 15:58:00,
2013-05-16 12:03:00,80.5,58.4,29.92,NE,55,0.0,1.0,47,0.00,,,0.00,LWC V2.00 B2112,2013-05-16 16:03:00,
2013-05-16 12:08:00,80.3,61.0,29.92,NE,55,0.0,0.0,52,0.00,,,0.00,LWC V2.00 B2112,2013-05-16 16:08:00,
2013-05-16 12:13:00,80.3,58.2,29.92,NE,49,0.0,4.0,47,0.00,,,0.00,LWC V2.00 B2112,2013-05-16 16:13:00,
2013-05-16 12:18:00,80.3,59.9,29.92,NE,50,0.0,2.0,50,0.00,,,0.00,LWC V2.00 B2112,2013-05-16 16:18:00,
2013-05-16 12:23:00,80.7,60.3,29.92,NE,50,0.0,0.0,50,0.00,,,0.00,LWC V2.00 B2112,2013-05-16 16:23:00,
2013-05-16 12:28:00,80.7,61.4,29.91,NE,50,1.0,1.0,52,0.00,,,0.00,LWC V2.00 B2112,2013-05-16 16:28:00,
2013-05-16 12:33:00,80.7,60.9,29.91,NE,50,0.0,1.0,51,0.00,,,0.00,LWC V2.00 B2112,2013-05-16 16:33:00,
2013-05-16 12:38:00,80.7,61.4,29.91,NE,50,0.0,0.0,52,0.00,,,0.00,LWC V2.00 B2112,2013-05-16 16:38:00,
2013-05-16 12:43:00,80.7,62.0,29.91,NE,51,0.0,0.0,53,0.00,,,0.00,LWC V2.00 B2112,2013-05-16 16:43:00,
2013-05-16 12:48:00,80.5,63.3,29.91,NE,51,0.0,1.0,56,0.00,,,0.00,LWC V2.00 B2112,2013-05-16 16:48:00,
2013-05-16 12:53:00,80.1,61.4,29.91,NE,51,0.0,0.0,53,0.00,,,0.00,LWC V2.00 B2112,2013-05-16 16:53:00,
2013-05-16 12:58:00,79.8,61.7,29.91,NE,51,0.0,0.0,54,0.00,,,0.00,LWC V2.00 B2112,2013-05-16 16:58:00,
2013-05-16 13:03:00,79.8,63.2,29.91,NE,51,0.0,0.0,57,0.00,,,0.00,LWC V2.00 B2112,2013-05-16 17:03:00,
2013-05-16 13:08:00,79.6,62.0,29.91,NE,51,0.0,1.0,55,0.00,,,0.00,LWC V2.00 B2112,2013-05-16 17:08:00,
2013-05-16 13:13:00,79.6,62.0,29.91,NE,53,0.0,2.0,55,0.00,,,0.00,LWC V2.00 B2112,2013-05-16 17:13:00,
2013-05-16 13:18:00,79.6,62.5,29.91,NE,52,0.0,0.0,56,0.00,,,0.00,LWC V2.00 B2112,2013-05-16 17:18:00,
2013-05-16 13:23:00,79.8,62.7,29.91,ENE,57,0.0,1.0,56,0.00,,,0.00,LWC V2.00 B2112,2013-05-16 17:23:00,
2013-05-16 13:28:00,80.1,61.4,29.91,ENE,59,0.0,0.0,53,0.00,,,0.00,LWC V2.00 B2112,2013-05-16 17:28:00,
2013-05-16 13:33:00,80.5,61.2,29.91,ENE,64,0.0,1.0,52,0.00,,,0.00,LWC V2.00 B2112,2013-05-16 17:33:00,
2013-05-16 13:38:00,80.9,58.8,29.91,East,89,0.0,4.0,47,0.00,,,0.00,LWC V2.00 B2112,2013-05-16 17:38:00,
2013-05-16 13:43:00,81.4,59.8,29.91,East,101,0.0,0.0,48,0.00,,,0.00,LWC V2.00 B2112,2013-05-16 17:43:00,
2013-05-16 13:48:00,81.8,58.4,29.91,NE,51,0.0,0.0,45,0.00,,,0.00,LWC V2.00 B2112,2013-05-16 17:48:00,
2013-05-16 13:53:00,82.6,59.7,29.91,ENE,59,0.0,0.0,46,0.00,,,0.00,LWC V2.00 B2112,2013-05-16 17:53:00,
2013-05-16 13:58:00,83.2,59.0,29.91,ENE,61,1.0,3.0,44,0.00,,,0.00,LWC V2.00 B2112,2013-05-16 17:58:00,
2013-05-16 14:03:00,84.0,58.4,29.91,ENE,63,0.0,0.0,42,0.00,,,0.00,LWC V2.00 B2112,2013-05-16 18:03:00,
2013-05-16 14:09:00,83.8,58.2,29.91,East,83,0.0,3.0,42,0.00,,,0.00,LWC V2.00 B2112,2013-05-16 18:09:00,
2013-05-16 14:14:00,84.0,59.7,29.90,ENE,63,0.0,0.0,44,0.00,,,0.00,LWC V2.00 B2112,2013-05-16 18:14:00,
2013-05-16 14:19:00,84.1,60.4,29.90,ENE,64,0.0,2.0,45,0.00,,,0.00,LWC V2.00 B2112,2013-05-16 18:19:00,
2013-05-16 14:24:00,84.1,61.1,29.90,ENE,69,0.0,0.0,46,0.00,,,0.00,LWC V2.00 B2112,2013-05-16 18:24:00,
2013-05-16 14:29:00,84.3,60.0,29.89,ENE,57,0.0,4.0,44,0.00,,,0.00,LWC V2.00 B2112,2013-05-16 18:29:00,
2013-05-16 14:34:00,84.0,60.3,29.89,NE,39,1.0,1.0,45,0.00,,,0.00,LWC V2.00 B2112,2013-05-16 18:34:00,
2013-05-16 14:39:00,83.6,60.0,29.89,ENE,60,0.0,0.0,45,0.00,,,0.00,LWC V2.00 B2112,2013-05-16 18:39:00,
2013-05-16 14:44:00,84.1,60.4,29.89,NE,50,0.0,0.0,45,0.00,,,0.00,LWC V2.00 B2112,2013-05-16 18:44:00,
2013-05-16 14:49:00,84.0,60.3,29.89,East,94,0.0,2.0,45,0.00,,,0.00,LWC V2.00 B2112,2013-05-16 18:49:00,
2013-05-16 14:54:00,84.0,61.0,29.89,East,94,0.0,1.0,46,0.00,,,0.00,LWC V2.00 B2112,2013-05-16 18:54:00,
2013-05-16 14:59:00,84.0,59.1,29.88,NE,34,0.0,3.0,43,0.00,,,0.00,LWC V2.00 B2112,2013-05-16 18:59:00,
2013-05-16 15:04:00,83.8,60.2,29.88,NNE,19,0.0,2.0,45,0.00,,,0.00,LWC V2.00 B2112,2013-05-16 19:04:00,
2013-05-16 15:09:00,84.1,59.8,29.88,NE,37,0.0,3.0,44,0.00,,,0.00,LWC V2.00 B2112,2013-05-16 19:09:00,
2013-05-16 15:14:00,84.1,61.7,29.88,NE,37,0.0,1.0,47,0.00,,,0.00,LWC V2.00 B2112,2013-05-16 19:14:00,
2013-05-16 15:19:00,84.0,61.0,29.88,NE,37,0.0,0.0,46,0.00,,,0.00,LWC V2.00 B2112,2013-05-16 19:19:00,
2013-05-16 15:24:00,84.0,61.6,29.88,NE,37,0.0,0.0,47,0.00,,,0.00,LWC V2.00 B2112,2013-05-16 19:24:00,
2013-05-16 15:29:00,83.8,58.9,29.88,East,94,0.0,1.0,43,0.00,,,0.00,LWC V2.00 B2112,2013-05-16 19:29:00,
2013-05-16 15:34:00,84.0,59.7,29.88,ENE,74,0.0,2.0,44,0.00,,,0.00,LWC V2.00 B2112,2013-05-16 19:34:00,
2013-05-16 15:39:00,83.6,59.3,29.88,NE,49,0.0,3.0,44,0.00,,,0.00,LWC V2.00 B2112,2013-05-16 19:39:00,
2013-05-16 15:44:00,83.6,60.6,29.88,NE,49,0.0,1.0,46,0.00,,,0.00,LWC V2.00 B2112,2013-05-16 19:44:00,
2013-05-16 15:49:00,83.6,60.0,29.88,NE,49,0.0,0.0,45,0.00,,,0.00,LWC V2.00 B2112,2013-05-16 19:49:00,
2013-05-16 15:54:00,83.8,61.4,29.88,NE,49,0.0,1.0,47,0.00,,,0.00,LWC V2.00 B2112,2013-05-16 19:54:00,
2013-05-16 15:59:00,83.8,61.4,29.88,NE,51,0.0,1.0,47,0.00,,,0.00,LWC V2.00 B2112,2013-05-16 19:59:00,
2013-05-16 16:04:00,83.6,61.8,29.88,NE,51,0.0,0.0,48,0.00,,,0.00,LWC V2.00 B2112,2013-05-16 20:04:00,
2013-05-16 16:09:00,83.8,60.2,29.88,NNE,14,0.0,3.0,45,0.00,,,0.00,LWC V2.00 B2112,2013-05-16 20:09:00,
2013-05-16 16:14:00,83.6,63.0,29.87,NNE,14,0.0,0.0,50,0.00,,,0.00,LWC V2.00 B2112,2013-05-16 20:14:00,
2013-05-16 16:19:00,83.2,65.8,29.87,NNE,30,0.0,0.0,56,0.00,,,0.00,LWC V2.00 B2112,2013-05-16 20:19:00,
2013-05-16 16:24:00,82.6,62.6,29.87,NE,53,0.0,5.0,51,0.00,,,0.00,LWC V2.00 B2112,2013-05-16 20:24:00,
2013-05-16 16:29:00,82.2,61.7,29.88,NE,53,0.0,0.0,50,0.00,,,0.00,LWC V2.00 B2112,2013-05-16 20:29:00,
2013-05-16 16:34:00,81.6,62.8,29.88,NE,53,0.0,0.0,53,0.00,,,0.00,LWC V2.00 B2112,2013-05-16 20:34:00,
2013-05-16 16:39:00,81.2,61.3,29.88,ENE,65,0.0,2.0,51,0.00,,,0.00,LWC V2.00 B2112,2013-05-16 20:39:00,
2013-05-16 16:44:00,81.2,59.6,29.88,SE,136,0.0,3.0,48,0.00,,,0.00,LWC V2.00 B2112,2013-05-16 20:44:00,
2013-05-16 16:49:00,81.4,59.8,29.88,East,92,0.0,0.0,48,0.00,,,0.00,LWC V2.00 B2112,2013-05-16 20:49:00,
2013-05-16 16:54:00,81.6,60.0,29.88,ENE,67,0.0,1.0,48,0.00,,,0.00,LWC V2.00 B2112,2013-05-16 20:54:00,
2013-05-16 16:59:00,81.6,60.6,29.88,NE,48,0.0,2.0,49,0.00,,,0.00,LWC V2.00 B2112,2013-05-16 20:59:00,
2013-05-16 17:04:00,81.8,60.2,29.88,NE,53,0.0,2.0,48,0.00,,,0.00,LWC V2.00 B2112,2013-05-16 21:04:00,
2013-05-16 17:09:00,82.2,63.3,29.88,NE,47,0.0,0.0,53,0.00,,,0.00,LWC V2.00 B2112,2013-05-16 21:09:00,
2013-05-16 17:14:00,82.0,64.2,29.88,NE,47,0.0,1.0,55,0.00,,,0.00,LWC V2.00 B2112,2013-05-16 21:14:00,
2013-05-16 17:19:00,81.4,60.9,29.88,NE,47,0.0,0.0,50,0.00,,,0.00,LWC V2.00 B2112,2013-05-16 21:19:00,
2013-05-16 17:24:00,81.1,61.2,29.88,NE,47,0.0,0.0,51,0.00,,,0.00,LWC V2.00 B2112,2013-05-16 21:24:00,
2013-05-16 17:29:00,81.1,61.2,29.88,NE,47,0.0,0.0,51,0.00,,,0.00,LWC V2.00 B2112,2013-05-16 21:29:00,
2013-05-16 17:34:00,80.9,62.1,29.88,NE,47,0.0,0.0,53,0.00,,,0.00,LWC V2.00 B2112,2013-05-16 21:34:00,
2013-05-16 17:39:00,80.7,62.0,29.88,NE,48,0.0,1.0,53,0.00,,,0.00,LWC V2.00 B2112,2013-05-16 21:39:00,
2013-05-16 17:44:00,80.3,63.7,29.88,NE,47,0.0,0.0,57,0.00,,,0.00,LWC V2.00 B2112,2013-05-16 21:44:00,
2013-05-16 17:49:00,80.1,62.4,29.88,NE,46,0.0,0.0,55,0.00,,,0.00,LWC V2.00 B2112,2013-05-16 21:49:00,
2013-05-16 17:54:00,79.9,62.8,29.88,NE,46,0.0,0.0,56,0.00,,,0.00,LWC V2.00 B2112,2013-05-16 21:54:00,
2013-05-16 17:59:00,79.8,63.2,29.88,NE,46,0.0,0.0,57,0.00,,,0.00,LWC V2.00 B2112,2013-05-16 21:59:00,
2013-05-16 18:04:00,79.6,64.5,29.88,NE,46,0.0,0.0,60,0.00,,,0.00,LWC V2.00 B2112,2013-05-16 22:04:00,
2013-05-16 18:09:00,79.4,65.7,29.88,NE,46,0.0,0.0,63,0.00,,,0.00,LWC V2.00 B2112,2013-05-16 22:09:00,
2013-05-16 18:14:00,79.0,65.8,29.88,NE,46,0.0,0.0,64,0.00,,,0.00,LWC V2.00 B2112,2013-05-16 22:14:00,
2013-05-16 18:19:00,78.8,66.0,29.88,NE,46,0.0,0.0,65,0.00,,,0.00,LWC V2.00 B2112,2013-05-16 22:19:00,
2013-05-16 18:24:00,78.5,65.7,29.88,NE,46,0.0,0.0,65,0.00,,,0.00,LWC V2.00 B2112,2013-05-16 22:24:00,
2013-05-16 18:29:00,78.3,66.4,29.88,NE,46,0.0,0.0,67,0.00,,,0.00,LWC V2.00 B2112,2013-05-16 22:29:00,
2013-05-16 18:34:00,77.9,66.5,29.88,NE,46,0.0,0.0,68,0.00,,,0.00,LWC V2.00 B2112,2013-05-16 22:34:00,
2013-05-16 18:39:00,77.7,66.3,29.88,NE,46,0.0,0.0,68,0.00,,,0.00,LWC V2.00 B2112,2013-05-16 22:39:00,
2013-05-16 18:44:00,77.4,66.4,29.88,NE,46,0.0,0.0,69,0.00,,,0.00,LWC V2.00 B2112,2013-05-16 22:44:00,
2013-05-16 18:49:00,77.2,66.2,29.88,NE,46,0.0,0.0,69,0.00,,,0.00,LWC V2.00 B2112,2013-05-16 22:49:00,
2013-05-16 18:54:00,76.8,66.3,29.88,NE,46,0.0,0.0,70,0.00,,,0.00,LWC V2.00 B2112,2013-05-16 22:54:00,
2013-05-16 18:59:00,76.7,66.6,29.88,NE,46,0.0,0.0,71,0.00,,,0.00,LWC V2.00 B2112,2013-05-16 22:59:00,
2013-05-16 19:04:00,76.3,66.2,29.88,NE,46,0.0,0.0,71,0.00,,,0.00,LWC V2.00 B2112,2013-05-16 23:04:00,
2013-05-16 19:09:00,76.1,66.4,29.88,NE,46,0.0,0.0,72,0.00,,,0.00,LWC V2.00 B2112,2013-05-16 23:09:00,
2013-05-16 19:14:00,76.0,65.9,29.88,NE,46,0.0,0.0,71,0.00,,,0.00,LWC V2.00 B2112,2013-05-16 23:14:00,
2013-05-16 19:19:00,75.6,65.9,29.88,NE,46,0.0,0.0,72,0.00,,,0.00,LWC V2.00 B2112,2013-05-16 23:19:00,
2013-05-16 19:24:00,75.4,66.1,29.88,NE,46,0.0,0.0,73,0.00,,,0.00,LWC V2.00 B2112,2013-05-16 23:24:00,
2013-05-16 19:29:00,75.3,66.0,29.88,NE,46,0.0,0.0,73,0.00,,,0.00,LWC V2.00 B2112,2013-05-16 23:29:00,
2013-05-16 19:34:00,75.1,65.8,29.88,NE,46,0.0,0.0,73,0.00,,,0.00,LWC V2.00 B2112,2013-05-16 23:34:00,
2013-05-16 19:39:00,74.7,65.1,29.88,NE,46,0.0,0.0,72,0.00,,,0.00,LWC V2.00 B2112,2013-05-16 23:39:00,
2013-05-16 19:44:00,74.6,65.0,29.88,NE,46,0.0,0.0,72,0.00,,,0.00,LWC V2.00 B2112,2013-05-16 23:44:00,
2013-05-16 19:49:00,74.4,64.8,29.88,NE,46,0.0,0.0,72,0.00,,,0.00,LWC V2.00 B2112,2013-05-16 23:49:00,
2013-05-16 19:54:00,74.2,65.0,29.89,NE,46,0.0,0.0,73,0.00,,,0.00,LWC V2.00 B2112,2013-05-16 23:54:00,
2013-05-16 19:59:00,74.0,64.8,29.89,NE,46,0.0,0.0,73,0.00,,,0.00,LWC V2.00 B2112,2013-05-16 23:59:00,
2013-05-16 20:04:00,73.9,64.7,29.89,NE,46,0.0,0.0,73,0.00,,,0.00,LWC V2.00 B2112,2013-05-17 00:04:00,
2013-05-16 20:09:00,73.7,65.3,29.89,NE,46,0.0,0.0,75,0.00,,,0.00,LWC V2.00 B2112,2013-05-17 00:09:00,
2013-05-16 20:14:00,73.5,65.1,29.89,NE,46,0.0,0.0,75,0.00,,,0.00,LWC V2.00 B2112,2013-05-17 00:14:00,
2013-05-16 20:19:00,73.2,64.8,29.89,NE,46,0.0,0.0,75,0.00,,,0.00,LWC V2.00 B2112,2013-05-17 00:19:00,
2013-05-16 20:24:00,72.8,64.4,29.90,NE,46,0.0,0.0,75,0.00,,,0.00,LWC V2.00 B2112,2013-05-17 00:24:00,
2013-05-16 20:29:00,72.7,64.3,29.90,NE,46,0.0,0.0,75,0.00,,,0.00,LWC V2.00 B2112,2013-05-17 00:29:00,
2013-05-16 20:34:00,72.3,63.9,29.90,NE,46,0.0,0.0,75,0.00,,,0.00,LWC V2.00 B2112,2013-05-17 00:34:00,
2013-05-16 20:39:00,72.0,64.0,29.90,NE,46,0.0,0.0,76,0.00,,,0.00,LWC V2.00 B2112,2013-05-17 00:39:00,
2013-05-16 20:44:00,71.6,63.6,29.90,NE,46,0.0,0.0,76,0.00,,,0.00,LWC V2.00 B2112,2013-05-17 00:44:00,
2013-05-16 20:49:00,71.3,63.7,29.90,NE,46,0.0,0.0,77,0.00,,,0.00,LWC V2.00 B2112,2013-05-17 00:49:00,
2013-05-16 20:54:00,71.1,63.5,29.91,NE,46,0.0,0.0,77,0.00,,,0.00,LWC V2.00 B2112,2013-05-17 00:54:00,
2013-05-16 20:59:00,70.8,63.6,29.91,NE,46,0.0,0.0,78,0.00,,,0.00,LWC V2.00 B2112,2013-05-17 00:59:00,
2013-05-16 21:04:00,70.6,63.4,29.91,NE,46,0.0,0.0,78,0.00,,,0.00,LWC V2.00 B2112,2013-05-17 01:04:00,
2013-05-16 21:09:00,70.3,63.5,29.91,NE,46,0.0,0.0,79,0.00,,,0.00,LWC V2.00 B2112,2013-05-17 01:09:00,
2013-05-16 21:14:00,70.1,63.3,29.91,NE,46,0.0,0.0,79,0.00,,,0.00,LWC V2.00 B2112,2013-05-17 01:14:00,
2013-05-16 21:19:00,69.8,63.3,29.91,NE,46,0.0,0.0,80,0.00,,,0.00,LWC V2.00 B2112,2013-05-17 01:19:00,
2013-05-16 21:24:00,69.6,63.1,29.91,NE,46,0.0,0.0,80,0.00,,,0.00,LWC V2.00 B2112,2013-05-17 01:24:00,
2013-05-16 21:29:00,69.4,63.0,29.91,NE,46,0.0,0.0,80,0.00,,,0.00,LWC V2.00 B2112,2013-05-17 01:29:00,
2013-05-16 21:34:00,69.3,62.9,29.91,NE,46,0.0,0.0,80,0.00,,,0.00,LWC V2.00 B2112,2013-05-17 01:34:00,
2013-05-16 21:39:00,69.1,63.0,29.92,NE,46,0.0,0.0,81,0.00,,,0.00,LWC V2.00 B2112,2013-05-17 01:39:00,
2013-05-16 21:44:00,68.9,62.8,29.92,NE,46,0.0,0.0,81,0.00,,,0.00,LWC V2.00 B2112,2013-05-17 01:44:00,
2013-05-16 21:49:00,68.8,63.1,29.92,NE,46,0.0,0.0,82,0.00,,,0.00,LWC V2.00 B2112,2013-05-17 01:49:00,
2013-05-16 21:54:00,68.6,62.9,29.93,NE,46,0.0,0.0,82,0.00,,,0.00,LWC V2.00 B2112,2013-05-17 01:54:00,
2013-05-16 21:59:00,68.6,62.9,29.93,NE,46,0.0,0.0,82,0.00,,,0.00,LWC V2.00 B2112,2013-05-17 01:59:00,
2013-05-16 22:04:00,68.4,62.7,29.93,NE,46,0.0,0.0,82,0.00,,,0.00,LWC V2.00 B2112,2013-05-17 02:04:00,
2013-05-16 22:09:00,68.3,62.9,29.93,NE,46,0.0,0.0,83,0.00,,,0.00,LWC V2.00 B2112,2013-05-17 02:09:00,
2013-05-16 22:14:00,68.1,62.7,29.93,NE,46,0.0,0.0,83,0.00,,,0.00,LWC V2.00 B2112,2013-05-17 02:14:00,
2013-05-16 22:19:00,67.9,62.9,29.93,NE,46,0.0,0.0,84,0.00,,,0.00,LWC V2.00 B2112,2013-05-17 02:19:00,
2013-05-16 22:24:00,67.8,62.8,29.93,NE,46,0.0,0.0,84,0.00,,,0.00,LWC V2.00 B2112,2013-05-17 02:24:00,
2013-05-16 22:29:00,67.6,62.6,29.93,NE,46,0.0,0.0,84,0.00,,,0.00,LWC V2.00 B2112,2013-05-17 02:29:00,
2013-05-16 22:34:00,67.4,62.4,29.93,NE,46,0.0,0.0,84,0.00,,,0.00,LWC V2.00 B2112,2013-05-17 02:34:00,
2013-05-16 22:39:00,67.3,62.3,29.93,NE,46,0.0,0.0,84,0.00,,,0.00,LWC V2.00 B2112,2013-05-17 02:39:00,
2013-05-16 22:44:00,67.1,62.1,29.93,NE,46,0.0,0.0,84,0.00,,,0.00,LWC V2.00 B2112,2013-05-17 02:44:00,
2013-05-16 22:49:00,67.1,62.1,29.93,NE,46,0.0,0.0,84,0.00,,,0.00,LWC V2.00 B2112,2013-05-17 02:49:00,
2013-05-16 22:54:00,66.9,61.9,29.93,NE,46,0.0,0.0,84,0.00,,,0.00,LWC V2.00 B2112,2013-05-17 02:54:00,
2013-05-16 22:59:00,66.8,62.1,29.93,NE,46,0.0,0.0,85,0.00,,,0.00,LWC V2.00 B2112,2013-05-17 02:59:00,
2013-05-16 23:04:00,66.6,61.9,29.93,NE,46,0.0,0.0,85,0.00,,,0.00,LWC V2.00 B2112,2013-05-17 03:04:00,
2013-05-16 23:09:00,66.4,61.7,29.93,NE,46,0.0,0.0,85,0.00,,,0.00,LWC V2.00 B2112,2013-05-17 03:09:00,
2013-05-16 23:14:00,66.4,61.7,29.93,NE,46,0.0,0.0,85,0.00,,,0.00,LWC V2.00 B2112,2013-05-17 03:14:00,
2013-05-16 23:19:00,66.3,61.6,29.93,NE,46,0.0,0.0,85,0.00,,,0.00,LWC V2.00 B2112,2013-05-17 03:19:00,
2013-05-16 23:24:00,66.1,61.5,29.93,NE,46,0.0,0.0,85,0.00,,,0.00,LWC V2.00 B2112,2013-05-17 03:24:00,
2013-05-16 23:29:00,66.0,61.4,29.93,NE,46,0.0,0.0,85,0.00,,,0.00,LWC V2.00 B2112,2013-05-17 03:29:00,
2013-05-16 23:34:00,66.0,61.7,29.93,NE,46,0.0,0.0,86,0.00,,,0.00,LWC V2.00 B2112,2013-05-17 03:34:00,
2013-05-16 23:39:00,65.8,61.5,29.93,NE,46,0.0,0.0,86,0.00,,,0.00,LWC V2.00 B2112,2013-05-17 03:39:00,
2013-05-16 23:44:00,65.8,61.5,29.93,NE,46,0.0,0.0,86,0.00,,,0.00,LWC V2.00 B2112,2013-05-17 03:44:00,
2013-05-16 23:49:00,65.6,61.6,29.93,NE,46,0.0,0.0,87,0.00,,,0.00,LWC V2.00 B2112,2013-05-17 03:49:00,
2013-05-16 23:54:00,65.6,61.6,29.93,NE,46,0.0,0.0,87,0.00,,,0.00,LWC V2.00 B2112,2013-05-17 03:54:00,
2013-05-16 23:59:00,65.6,61.6,29.93,NE,46,0.0,0.0,87,0.00,,,0.00,LWC V2.00 B2112,2013-05-17 03:59:00,